Overview Statistics Trail Chart Weather Telemetry Raw packets
 

This is the latest recevied weather packets stored in our database for station/object SV6GMP-10. If no packets are shown the sender has not sent any weather packets the latest 10 day(s).

<< 34 35 36 37 38 39 40 >>
Time Temp. Humidity Pressure Rain* Wind** Luminosity Snow
1787817724 31.67° C 52% 1016 hPa - - - -
1787816824 31.11° C 53% 1015.9 hPa - - - -
1787815924 31.11° C 58% 1016 hPa - - - -
1787815023 30.56° C 66% 1015.9 hPa - - - -
1787814123 30.56° C 69% 1015.9 hPa - - - -
1787813223 30.56° C 72% 1015.9 hPa - - - -
1787812323 30° C 75% 1015.7 hPa - - - -
1787811423 30° C 76% 1015.8 hPa - - - -
1787810523 30° C 75% 1015.7 hPa - - - -
1787809623 30° C 75% 1015.4 hPa - - - -
1787808734 30° C 75% 1015.2 hPa - - - -
1787808723 30° C 75% 1015.2 hPa - - - -
1787807823 30° C 73% 1014.9 hPa - - - -
1787806923 30° C 73% 1014.7 hPa - - - -
1787806023 30° C 70% 1014.7 hPa - - - -
1787805123 30° C 69% 1014.4 hPa - - - -
1787804223 30.56° C 66% 1014.3 hPa - - - -
1787803323 30.56° C 64% 1014.2 hPa - - - -
1787802423 30.56° C 62% 1014.3 hPa - - - -
1787801522 30.56° C 63% 1014.4 hPa - - - -
1787800622 30.56° C 68% 1014.2 hPa - - - -
1787799722 30.56° C 70% 1014.1 hPa - - - -
1787798822 31.11° C 69% 1014.2 hPa - - - -
1787797922 31.11° C 69% 1014.2 hPa - - - -
1787797022 31.11° C 69% 1014.1 hPa - - - -

* Rain since midnight (hover to see other rain measurements)
** Current wind speed in m/s (hover to see current wind gust speed)